createdAt,value
2023-05-18T00:01:26.450Z,2.40
2023-05-18T00:03:54.885Z,2.83
2023-05-18T00:06:22.604Z,2.73
2023-05-18T00:08:49.430Z,2.65
2023-05-18T00:11:17.230Z,2.27
2023-05-18T00:13:44.293Z,2.20
2023-05-18T00:16:13.704Z,2.70
2023-05-18T00:18:40.890Z,2.20
2023-05-18T00:21:08.950Z,2.83
2023-05-18T00:23:35.956Z,2.57
2023-05-18T00:26:04.216Z,2.83
2023-05-18T00:28:31.055Z,2.30
2023-05-18T00:30:57.844Z,3.10
2023-05-18T00:33:24.633Z,2.70
2023-05-18T00:35:51.379Z,2.33
2023-05-18T00:38:18.388Z,2.03
2023-05-18T00:40:45.113Z,2.30
2023-05-18T00:43:11.879Z,3.00
2023-05-18T00:45:38.906Z,3.07
2023-05-18T00:48:06.195Z,2.30
2023-05-18T00:50:33.238Z,2.50
2023-05-18T00:53:00.538Z,2.23
2023-05-18T00:55:28.537Z,2.70
2023-05-18T00:57:56.951Z,2.40
2023-05-18T01:00:24.149Z,2.53
2023-05-18T01:02:54.848Z,2.67
2023-05-18T01:05:22.339Z,2.80
2023-05-18T01:07:51.993Z,2.53
2023-05-18T01:10:20.737Z,2.50
2023-05-18T01:13:12.897Z,2.90
2023-05-18T01:15:41.881Z,2.47
2023-05-18T01:18:27.729Z,2.73
2023-05-18T01:21:19.711Z,3.03
2023-05-18T01:24:03.869Z,2.50
2023-05-18T01:26:37.537Z,2.67
2023-05-18T01:29:09.258Z,2.60
2023-05-18T01:31:36.223Z,3.03
2023-05-18T01:34:03.073Z,3.00
2023-05-18T01:36:29.797Z,2.57
2023-05-18T01:39:01.353Z,2.60
2023-05-18T01:41:30.305Z,2.90
2023-05-18T01:44:36.311Z,2.83
2023-05-18T01:47:12.234Z,2.80
2023-05-18T01:49:47.328Z,3.10
2023-05-18T01:52:39.871Z,3.57
2023-05-18T01:55:08.419Z,3.37
2023-05-18T01:57:36.656Z,3.57
2023-05-18T02:00:07.932Z,3.23
2023-05-18T02:02:35.172Z,3.00
2023-05-18T02:05:02.576Z,3.40
2023-05-18T02:07:29.240Z,3.37
2023-05-18T02:09:56.105Z,3.67
2023-05-18T02:12:22.830Z,3.20
2023-05-18T02:14:49.549Z,3.23
2023-05-18T02:17:16.230Z,3.53
2023-05-18T02:19:43.234Z,3.40
2023-05-18T02:22:10.071Z,3.50
2023-05-18T02:24:36.749Z,3.33
2023-05-18T02:27:05.226Z,2.97
2023-05-18T02:29:33.120Z,2.93
2023-05-18T02:31:59.884Z,3.23
2023-05-18T02:34:27.654Z,3.43
2023-05-18T02:36:57.812Z,3.47
2023-05-18T02:39:24.825Z,3.70
2023-05-18T02:41:51.533Z,3.50
2023-05-18T02:44:18.596Z,3.77
2023-05-18T02:46:45.540Z,4.13
2023-05-18T02:49:17.624Z,4.03
2023-05-18T02:51:44.303Z,3.90
2023-05-18T02:54:12.443Z,4.00
2023-05-18T02:56:41.693Z,3.63
2023-05-18T02:59:09.021Z,4.20
2023-05-18T03:01:37.881Z,3.80
2023-05-18T03:04:04.786Z,4.10
2023-05-18T03:06:31.532Z,4.20
2023-05-18T03:08:58.883Z,3.93
2023-05-18T03:11:26.404Z,3.80
2023-05-18T03:13:53.159Z,4.40
2023-05-18T03:16:20.145Z,4.70
2023-05-18T03:18:46.906Z,3.73
2023-05-18T03:21:16.687Z,4.13
2023-05-18T03:23:43.441Z,4.50
2023-05-18T03:26:11.820Z,3.83
2023-05-18T03:28:58.633Z,4.20
2023-05-18T03:31:25.975Z,4.30
2023-05-18T03:33:52.744Z,3.73
2023-05-18T03:36:24.913Z,3.60
2023-05-18T03:38:51.614Z,4.53
2023-05-18T03:41:18.552Z,4.17
2023-05-18T03:43:45.496Z,3.53
2023-05-18T03:46:12.353Z,4.70
2023-05-18T03:48:39.051Z,3.70
2023-05-18T03:51:06.611Z,4.17
2023-05-18T03:53:33.889Z,3.20
2023-05-18T03:56:00.909Z,3.33
2023-05-18T03:58:27.688Z,3.30
2023-05-18T04:00:54.505Z,3.30
2023-05-18T04:03:21.718Z,3.43
2023-05-18T04:05:49.749Z,3.60
2023-05-18T04:08:19.975Z,4.07
2023-05-18T04:10:46.899Z,4.20
2023-05-18T04:13:13.635Z,3.90
2023-05-18T04:15:40.463Z,4.53
2023-05-18T04:18:08.389Z,3.80
2023-05-18T04:20:35.309Z,4.20
2023-05-18T04:23:05.159Z,3.43
2023-05-18T04:25:32.070Z,3.27
2023-05-18T04:27:59.031Z,3.87
2023-05-18T04:30:27.388Z,3.33
2023-05-18T04:32:58.262Z,3.60
2023-05-18T04:35:26.098Z,4.03
2023-05-18T04:37:54.590Z,3.20
2023-05-18T04:40:21.489Z,2.93
2023-05-18T04:42:48.918Z,3.20
2023-05-18T04:45:17.847Z,3.77
2023-05-18T04:47:53.464Z,3.70
2023-05-18T04:50:23.893Z,3.60
2023-05-18T04:52:52.143Z,3.77
2023-05-18T04:55:26.023Z,3.27
2023-05-18T04:57:56.909Z,3.43
2023-05-18T05:00:26.080Z,3.10
2023-05-18T05:02:53.876Z,3.70
2023-05-18T05:05:21.565Z,3.20
2023-05-18T05:07:53.365Z,4.25
2023-05-18T05:10:21.186Z,3.23
2023-05-18T05:12:49.972Z,3.30
2023-05-18T05:15:20.154Z,2.80
2023-05-18T05:17:48.251Z,2.93
2023-05-18T05:20:16.185Z,2.97
2023-05-18T05:22:42.937Z,3.03
2023-05-18T05:25:10.044Z,2.93
2023-05-18T05:27:37.010Z,3.17
2023-05-18T05:30:04.894Z,2.97
2023-05-18T05:32:31.777Z,3.03
2023-05-18T05:34:58.572Z,2.80
2023-05-18T05:37:25.389Z,2.77
2023-05-18T05:39:52.172Z,2.33
2023-05-18T05:42:18.848Z,2.97
2023-05-18T05:44:45.589Z,2.40
2023-05-18T05:47:12.490Z,2.87
2023-05-18T05:49:39.432Z,2.70
2023-05-18T05:52:06.475Z,3.00
2023-05-18T05:54:33.333Z,3.03
2023-05-18T05:57:00.220Z,2.63
2023-05-18T05:59:27.228Z,2.87
2023-05-18T06:01:53.965Z,2.43
2023-05-18T06:04:20.864Z,2.20
2023-05-18T06:06:48.008Z,2.70
2023-05-18T06:09:15.995Z,2.40
2023-05-18T06:11:43.187Z,2.27
2023-05-18T06:14:10.068Z,3.27
2023-05-18T06:16:36.838Z,2.50
2023-05-18T06:19:03.790Z,2.50
2023-05-18T06:21:31.905Z,2.57
2023-05-18T06:23:58.698Z,2.73
2023-05-18T06:26:26.007Z,2.80
2023-05-18T06:28:52.729Z,2.17
2023-05-18T06:31:19.512Z,2.83
2023-05-18T06:33:46.241Z,2.53
2023-05-18T06:36:18.183Z,2.50
2023-05-18T06:38:44.889Z,2.17
2023-05-18T06:41:11.594Z,2.13
2023-05-18T06:43:38.322Z,2.17
2023-05-18T06:46:05.158Z,2.37
2023-05-18T06:48:32.007Z,2.43
2023-05-18T06:50:58.780Z,2.23
2023-05-18T06:53:28.669Z,2.50
2023-05-18T06:55:55.458Z,2.67
2023-05-18T06:58:22.934Z,2.40
2023-05-18T07:00:49.730Z,2.27
2023-05-18T07:03:16.602Z,2.53
2023-05-18T07:05:43.482Z,2.60
2023-05-18T07:08:10.298Z,2.00
2023-05-18T07:10:38.362Z,2.30
2023-05-18T07:13:05.111Z,2.67
2023-05-18T07:15:33.300Z,2.30
2023-05-18T07:18:00.412Z,2.10
2023-05-18T07:20:30.156Z,2.40
2023-05-18T07:22:56.907Z,2.37
2023-05-18T07:25:23.896Z,2.57
2023-05-18T07:27:54.613Z,2.77
2023-05-18T07:30:22.766Z,2.57
2023-05-18T07:32:51.357Z,2.87
2023-05-18T07:35:22.100Z,2.20
2023-05-18T07:37:50.271Z,2.27
2023-05-18T07:40:16.975Z,2.30
2023-05-18T07:42:44.120Z,2.67
2023-05-18T07:45:11.511Z,2.10
2023-05-18T07:47:38.659Z,2.07
2023-05-18T07:50:06.556Z,2.60
2023-05-18T07:52:33.356Z,2.43
2023-05-18T07:55:01.110Z,2.60
2023-05-18T07:57:30.624Z,2.00
2023-05-18T07:59:57.346Z,2.50
2023-05-18T08:02:24.804Z,2.03
2023-05-18T08:04:52.018Z,2.20
2023-05-18T08:07:18.914Z,2.77
2023-05-18T08:09:45.623Z,2.23
2023-05-18T08:12:12.347Z,2.10
2023-05-18T08:14:39.037Z,2.50
2023-05-18T08:17:06.549Z,2.50
2023-05-18T08:19:33.390Z,2.27
2023-05-18T08:22:00.126Z,2.00
2023-05-18T08:24:26.839Z,2.60
2023-05-18T08:26:53.645Z,2.40
2023-05-18T08:29:20.777Z,2.63
2023-05-18T08:31:49.298Z,2.43
2023-05-18T08:34:16.700Z,2.97
2023-05-18T08:36:45.707Z,2.37
2023-05-18T08:39:12.979Z,2.67
2023-05-18T08:42:06.193Z,2.10
2023-05-18T08:44:43.734Z,2.23
2023-05-18T08:47:13.741Z,2.97
2023-05-18T08:49:42.721Z,2.27
2023-05-18T08:52:10.345Z,2.20
2023-05-18T08:54:37.920Z,2.77
2023-05-18T08:57:11.880Z,2.27
2023-05-18T08:59:43.446Z,2.20
2023-05-18T09:02:10.288Z,2.03
2023-05-18T09:04:38.310Z,2.33
2023-05-18T09:07:06.768Z,2.40
2023-05-18T09:09:34.294Z,2.63
2023-05-18T09:12:01.905Z,2.43
2023-05-18T09:14:30.988Z,2.20
2023-05-18T09:16:57.780Z,2.23
2023-05-18T09:19:25.080Z,2.60
2023-05-18T09:21:52.925Z,2.70
2023-05-18T09:24:23.737Z,2.40
2023-05-18T09:26:51.711Z,2.30
2023-05-18T09:29:21.021Z,2.33
2023-05-18T09:31:48.984Z,2.67
2023-05-18T09:34:16.470Z,2.20
2023-05-18T09:36:49.437Z,2.40
2023-05-18T09:39:16.122Z,2.63
2023-05-18T09:41:42.770Z,2.60
2023-05-18T09:44:10.994Z,2.40
2023-05-18T09:46:39.004Z,2.73
2023-05-18T09:49:06.935Z,2.50
2023-05-18T09:51:37.948Z,2.13
2023-05-18T09:54:07.145Z,2.73
2023-05-18T09:56:37.902Z,2.30
2023-05-18T09:59:15.698Z,2.70
2023-05-18T10:02:02.394Z,2.50
2023-05-18T10:04:37.179Z,2.20
2023-05-18T10:07:10.413Z,2.20
2023-05-18T10:09:37.367Z,2.47
2023-05-18T10:12:12.961Z,2.67
2023-05-18T10:14:44.665Z,2.73
2023-05-18T10:17:17.235Z,2.30
2023-05-18T10:19:45.546Z,2.20
2023-05-18T10:22:16.624Z,2.33
2023-05-18T10:24:46.269Z,2.20
2023-05-18T10:27:14.819Z,2.43
2023-05-18T10:29:42.145Z,2.30
2023-05-18T10:32:12.944Z,2.50
2023-05-18T10:34:41.867Z,2.60
2023-05-18T10:37:11.933Z,2.37
2023-05-18T10:39:45.565Z,2.13
2023-05-18T10:42:14.574Z,2.43
2023-05-18T10:44:41.479Z,2.47
2023-05-18T10:47:08.988Z,2.50
2023-05-18T10:49:36.595Z,2.33
2023-05-18T10:52:03.941Z,2.33
2023-05-18T10:54:30.830Z,2.60
2023-05-18T10:56:57.732Z,2.60
2023-05-18T10:59:24.774Z,2.60
2023-05-18T11:01:56.123Z,2.87
2023-05-18T11:04:25.236Z,2.10
2023-05-18T11:07:15.633Z,2.17
2023-05-18T11:09:43.811Z,2.77
2023-05-18T11:12:15.030Z,2.70
2023-05-18T11:14:50.472Z,2.20
2023-05-18T11:17:22.344Z,2.40
2023-05-18T11:20:04.876Z,2.40
2023-05-18T11:22:52.757Z,2.37
2023-05-18T11:25:25.703Z,2.40
2023-05-18T11:27:53.253Z,2.50
2023-05-18T11:30:50.340Z,2.33
2023-05-18T11:33:26.952Z,2.60
2023-05-18T11:36:15.394Z,2.53
2023-05-18T11:39:08.534Z,2.73
2023-05-18T11:41:39.200Z,2.70
2023-05-18T11:44:12.472Z,3.23
2023-05-18T11:46:55.492Z,2.53
2023-05-18T11:49:36.465Z,2.30
2023-05-18T11:52:03.408Z,2.47
2023-05-18T11:54:52.422Z,2.70
2023-05-18T11:57:45.481Z,2.43
2023-05-18T12:00:13.067Z,2.33
2023-05-18T12:02:45.118Z,2.30
2023-05-18T12:05:12.785Z,2.60
2023-05-18T12:07:40.996Z,2.80
2023-05-18T12:10:10.400Z,2.50
2023-05-18T12:12:37.861Z,2.90
2023-05-18T12:15:06.491Z,2.37
2023-05-18T12:17:47.124Z,2.27
2023-05-18T12:20:17.981Z,3.07
2023-05-18T12:22:46.424Z,2.20
2023-05-18T12:25:13.639Z,2.07
2023-05-18T12:27:42.005Z,2.43
2023-05-18T12:30:16.547Z,2.30
2023-05-18T12:32:57.081Z,2.20
2023-05-18T12:35:25.125Z,2.47
2023-05-18T12:37:52.722Z,2.07
2023-05-18T12:40:20.540Z,2.27
2023-05-18T12:42:56.683Z,2.17
2023-05-18T12:45:25.890Z,2.30
2023-05-18T12:47:54.767Z,2.40
2023-05-18T12:50:23.809Z,2.40
2023-05-18T12:52:52.298Z,2.10
2023-05-18T12:55:23.253Z,2.33
2023-05-18T12:58:20.958Z,2.27
2023-05-18T13:00:48.916Z,2.10
2023-05-18T13:03:24.302Z,2.23
2023-05-18T13:06:07.890Z,2.20
2023-05-18T13:08:35.779Z,2.07
2023-05-18T13:11:13.805Z,2.43
2023-05-18T13:14:04.652Z,2.37
2023-05-18T13:16:33.728Z,2.00
2023-05-18T13:19:02.625Z,2.00
2023-05-18T13:21:29.584Z,2.30
2023-05-18T13:23:56.308Z,2.30
2023-05-18T13:26:24.163Z,2.00
2023-05-18T13:28:53.266Z,1.70
2023-05-18T13:31:20.876Z,1.90
2023-05-18T13:33:48.722Z,2.70
2023-05-18T13:36:16.251Z,2.10
2023-05-18T13:38:43.213Z,2.50
2023-05-18T13:41:17.271Z,2.20
2023-05-18T13:43:44.028Z,2.30
2023-05-18T13:46:10.851Z,1.80
2023-05-18T13:48:37.759Z,2.37
2023-05-18T13:51:04.752Z,1.67
2023-05-18T13:53:31.653Z,2.40
2023-05-18T13:55:58.472Z,1.80
2023-05-18T13:58:25.655Z,2.10
2023-05-18T14:00:53.895Z,2.00
2023-05-18T14:03:20.923Z,2.10
2023-05-18T14:05:47.816Z,2.20
2023-05-18T14:08:14.634Z,2.67
2023-05-18T14:10:41.656Z,2.20
2023-05-18T14:13:09.298Z,2.80
2023-05-18T14:15:36.049Z,2.10
2023-05-18T14:18:02.830Z,2.30
2023-05-18T14:20:30.548Z,2.33
2023-05-18T14:22:57.603Z,2.40
2023-05-18T14:25:24.331Z,2.50
2023-05-18T14:27:53.252Z,2.47
2023-05-18T14:30:20.061Z,2.20
2023-05-18T14:32:46.869Z,5.07
2023-05-18T14:35:13.724Z,2.10
2023-05-18T14:37:40.879Z,2.73
2023-05-18T14:40:08.475Z,2.40
2023-05-18T14:42:36.558Z,2.30
2023-05-18T14:45:03.523Z,2.50
2023-05-18T14:47:30.308Z,2.60
2023-05-18T14:49:57.186Z,2.80
2023-05-18T14:52:24.162Z,2.73
2023-05-18T14:54:50.836Z,2.60
2023-05-18T14:57:17.523Z,2.60
2023-05-18T14:59:44.237Z,2.40
2023-05-18T15:02:10.964Z,2.60
2023-05-18T15:04:37.819Z,2.30
2023-05-18T15:07:05.726Z,2.53
2023-05-18T15:09:32.558Z,2.70
2023-05-18T15:11:59.341Z,2.63
2023-05-18T15:14:26.060Z,2.20
2023-05-18T15:16:52.698Z,2.73
2023-05-18T15:19:19.438Z,2.40
2023-05-18T15:21:46.382Z,2.63
2023-05-18T15:24:13.280Z,3.00
2023-05-18T15:26:40.353Z,2.43
2023-05-18T15:29:07.058Z,2.70
2023-05-18T15:31:34.157Z,2.50
2023-05-18T15:34:01.027Z,2.67
2023-05-18T15:36:28.030Z,2.47
2023-05-18T15:38:55.014Z,2.27
2023-05-18T15:41:22.133Z,2.33
2023-05-18T15:43:48.897Z,2.40
2023-05-18T15:46:18.012Z,2.23
2023-05-18T15:48:44.831Z,2.00
2023-05-18T15:51:11.574Z,2.40
2023-05-18T15:53:38.380Z,2.70
2023-05-18T15:56:05.776Z,2.97
2023-05-18T15:58:33.270Z,2.73
2023-05-18T16:01:00.125Z,2.57
2023-05-18T16:03:26.884Z,2.50
2023-05-18T16:05:53.658Z,2.20
2023-05-18T16:08:20.755Z,2.30
2023-05-18T16:10:47.452Z,2.37
2023-05-18T16:13:14.810Z,2.37
2023-05-18T16:15:41.665Z,2.40
2023-05-18T16:18:08.491Z,2.33
2023-05-18T16:20:35.392Z,2.77
2023-05-18T16:23:02.225Z,2.47
2023-05-18T16:25:29.141Z,2.50
2023-05-18T16:27:56.454Z,2.43
2023-05-18T16:30:23.357Z,2.57
2023-05-18T16:32:50.075Z,2.47
2023-05-18T16:35:16.899Z,2.87
2023-05-18T16:37:43.637Z,2.30
2023-05-18T16:40:10.777Z,2.93
2023-05-18T16:42:37.552Z,2.50
2023-05-18T16:45:04.879Z,2.37
2023-05-18T16:47:34.548Z,2.30
2023-05-18T16:50:01.653Z,2.90
2023-05-18T16:52:28.460Z,2.70
2023-05-18T16:54:55.208Z,2.83
2023-05-18T16:57:22.244Z,2.90
2023-05-18T16:59:49.183Z,2.70
2023-05-18T17:02:17.421Z,2.53
2023-05-18T17:04:49.589Z,2.77
2023-05-18T17:07:16.604Z,2.70
2023-05-18T17:09:43.513Z,2.50
2023-05-18T17:12:11.249Z,1.97
2023-05-18T17:14:38.548Z,2.07
2023-05-18T17:17:05.810Z,2.37
2023-05-18T17:19:34.752Z,2.10
2023-05-18T17:22:01.685Z,2.40
2023-05-18T17:24:28.511Z,2.37
2023-05-18T17:26:55.327Z,2.20
2023-05-18T17:29:22.125Z,2.20
2023-05-18T17:31:49.171Z,1.90
2023-05-18T17:34:16.061Z,2.40
2023-05-18T17:36:42.751Z,2.80
2023-05-18T17:39:09.567Z,2.40
2023-05-18T17:41:37.008Z,2.43
2023-05-18T17:44:03.837Z,2.70
2023-05-18T17:46:30.732Z,2.50
2023-05-18T17:48:57.563Z,2.90
2023-05-18T17:51:24.707Z,3.37
2023-05-18T17:53:51.639Z,2.77
2023-05-18T17:56:18.524Z,3.07
2023-05-18T17:58:48.885Z,2.80
2023-05-18T18:01:15.581Z,2.83
2023-05-18T18:03:42.838Z,2.70
2023-05-18T18:06:09.620Z,2.53
2023-05-18T18:08:36.819Z,2.50
2023-05-18T18:11:03.823Z,2.67
2023-05-18T18:13:33.164Z,3.10
2023-05-18T18:16:00.100Z,2.70
2023-05-18T18:18:26.840Z,2.50
2023-05-18T18:20:53.537Z,2.80
2023-05-18T18:23:20.999Z,2.50
2023-05-18T18:25:47.796Z,2.60
2023-05-18T18:28:15.374Z,2.80
2023-05-18T18:30:44.562Z,2.40
2023-05-18T18:33:11.939Z,2.23
2023-05-18T18:35:38.986Z,2.73
2023-05-18T18:38:05.865Z,2.50
2023-05-18T18:40:34.506Z,2.67
2023-05-18T18:43:01.437Z,2.80
2023-05-18T18:45:30.044Z,2.57
2023-05-18T18:47:56.815Z,2.97
2023-05-18T18:50:23.886Z,2.80
2023-05-18T18:52:50.578Z,2.33
2023-05-18T18:55:17.830Z,2.73
2023-05-18T18:57:44.724Z,2.87
2023-05-18T19:00:12.193Z,2.80
2023-05-18T19:02:39.342Z,2.73
2023-05-18T19:05:07.444Z,2.70
2023-05-18T19:07:35.091Z,2.60
2023-05-18T19:10:05.095Z,3.43
2023-05-18T19:12:33.157Z,2.60
2023-05-18T19:14:59.914Z,2.70
2023-05-18T19:17:26.978Z,2.60
2023-05-18T19:19:53.746Z,2.80
2023-05-18T19:22:20.510Z,2.87
2023-05-18T19:24:47.229Z,2.73
2023-05-18T19:27:14.399Z,2.30
2023-05-18T19:29:43.074Z,3.00
2023-05-18T19:32:09.843Z,2.87
2023-05-18T19:34:36.602Z,2.73
2023-05-18T19:37:03.904Z,2.93
2023-05-18T19:39:30.648Z,2.63
2023-05-18T19:41:57.515Z,2.80
2023-05-18T19:44:24.251Z,3.07
2023-05-18T19:46:50.988Z,2.70
2023-05-18T19:49:17.743Z,2.70
2023-05-18T19:51:45.485Z,2.80
2023-05-18T19:54:12.534Z,3.00
2023-05-18T19:56:39.292Z,3.00
2023-05-18T19:59:06.129Z,2.80
2023-05-18T20:01:33.822Z,3.00
2023-05-18T20:04:03.356Z,2.97
2023-05-18T20:06:31.876Z,2.63
2023-05-18T20:08:58.752Z,3.27
2023-05-18T20:11:25.952Z,2.90
2023-05-18T20:13:53.866Z,3.30
2023-05-18T20:16:20.685Z,3.10
2023-05-18T20:18:47.529Z,3.43
2023-05-18T20:21:14.551Z,4.63
2023-05-18T20:23:41.632Z,3.67
2023-05-18T20:26:08.342Z,3.60
2023-05-18T20:28:35.510Z,3.97
2023-05-18T20:31:02.288Z,3.80
2023-05-18T20:33:30.231Z,4.33
2023-05-18T20:35:57.183Z,3.20
2023-05-18T20:38:25.767Z,3.77
2023-05-18T20:40:53.946Z,3.43
2023-05-18T20:43:21.329Z,4.10
2023-05-18T20:45:49.464Z,3.97
2023-05-18T20:48:24.438Z,3.87
2023-05-18T20:50:52.336Z,4.00
2023-05-18T20:53:19.493Z,4.43
2023-05-18T20:55:47.672Z,3.53
2023-05-18T20:58:18.544Z,4.37
2023-05-18T21:00:48.038Z,4.50
2023-05-18T21:03:15.331Z,3.90
2023-05-18T21:05:43.457Z,4.03
2023-05-18T21:08:10.430Z,4.70
2023-05-18T21:10:37.567Z,4.30
2023-05-18T21:13:04.592Z,4.30
2023-05-18T21:15:38.682Z,4.40
2023-05-18T21:18:05.441Z,4.47
2023-05-18T21:20:32.503Z,4.10
2023-05-18T21:22:59.601Z,4.13
2023-05-18T21:25:26.571Z,4.30
2023-05-18T21:27:53.370Z,4.27
2023-05-18T21:30:20.096Z,4.70
2023-05-18T21:32:48.243Z,4.37
2023-05-18T21:35:15.729Z,4.80
2023-05-18T21:37:44.742Z,4.50
2023-05-18T21:40:11.556Z,4.70
2023-05-18T21:42:44.773Z,4.97
2023-05-18T21:45:12.635Z,4.30
2023-05-18T21:47:39.513Z,4.63
2023-05-18T21:50:06.910Z,4.60
2023-05-18T21:52:35.305Z,4.70
2023-05-18T21:55:02.134Z,4.83
2023-05-18T21:57:28.871Z,4.67
2023-05-18T21:59:55.618Z,5.00
2023-05-18T22:02:22.763Z,4.93
2023-05-18T22:04:49.644Z,4.97
2023-05-18T22:07:16.362Z,4.97
2023-05-18T22:09:43.136Z,5.17
2023-05-18T22:12:09.872Z,5.57
2023-05-18T22:14:36.586Z,5.10
2023-05-18T22:17:05.088Z,4.63
2023-05-18T22:19:31.906Z,5.57
2023-05-18T22:21:58.673Z,5.50
2023-05-18T22:24:25.509Z,5.13
2023-05-18T22:26:52.228Z,5.23
2023-05-18T22:29:19.267Z,5.47
2023-05-18T22:31:45.994Z,5.23
2023-05-18T22:34:12.695Z,4.80
2023-05-18T22:36:39.456Z,5.17
2023-05-18T22:39:09.058Z,4.47
2023-05-18T22:41:35.740Z,4.50
2023-05-18T22:44:02.668Z,4.63
2023-05-18T22:46:29.480Z,4.60
2023-05-18T22:48:58.365Z,4.40
2023-05-18T22:51:26.354Z,4.80
2023-05-18T22:53:53.077Z,4.70
2023-05-18T22:56:23.205Z,4.40
2023-05-18T22:58:49.956Z,4.70
2023-05-18T23:01:17.006Z,4.03
2023-05-18T23:03:43.741Z,4.57
2023-05-18T23:06:10.593Z,4.30
2023-05-18T23:08:37.276Z,4.50
2023-05-18T23:11:05.815Z,4.00
2023-05-18T23:13:33.213Z,4.97
2023-05-18T23:16:01.049Z,4.40
2023-05-18T23:18:28.281Z,5.17
2023-05-18T23:20:55.809Z,4.97
2023-05-18T23:23:28.328Z,5.13
2023-05-18T23:25:55.079Z,4.67
2023-05-18T23:28:24.677Z,4.73
2023-05-18T23:30:51.406Z,4.60
2023-05-18T23:33:18.389Z,5.40
2023-05-18T23:35:50.036Z,5.13
2023-05-18T23:38:21.891Z,5.30
2023-05-18T23:40:50.500Z,6.00
2023-05-18T23:43:17.584Z,5.10
2023-05-18T23:45:44.552Z,4.90
2023-05-18T23:48:11.845Z,5.00
2023-05-18T23:50:41.375Z,4.90
2023-05-18T23:53:10.020Z,5.30
2023-05-18T23:55:40.067Z,4.60
2023-05-18T23:58:07.412Z,4.80
